createdAt,value
2023-03-04T00:04:25.614Z,4.5
2023-03-04T00:10:17.902Z,4.6
2023-03-04T00:15:58.200Z,4.5
2023-03-04T00:21:51.641Z,4.5
2023-03-04T00:27:28.720Z,4.5
2023-03-04T00:33:21.610Z,4.4
2023-03-04T00:39:14.358Z,4.4
2023-03-04T00:44:51.606Z,4.4
2023-03-04T00:50:13.731Z,4.4
2023-03-04T00:56:05.292Z,4.4
2023-03-04T01:01:42.550Z,4.4
2023-03-04T01:07:05.076Z,4.3
2023-03-04T01:12:42.653Z,4.3
2023-03-04T01:18:19.889Z,4.3
2023-03-04T01:23:56.728Z,4.3
2023-03-04T01:29:33.641Z,4.3
2023-03-04T01:35:11.121Z,4.3
2023-03-04T01:40:32.800Z,4.3
2023-03-04T01:45:57.628Z,4.3
2023-03-04T01:51:20.401Z,4.3
2023-03-04T01:56:42.193Z,4.3
2023-03-04T02:02:03.993Z,4.3
2023-03-04T02:07:26.006Z,4.2
2023-03-04T02:13:03.622Z,4.2
2023-03-04T02:18:11.031Z,4.1
2023-03-04T02:23:32.686Z,4.1
2023-03-04T02:29:09.886Z,4
2023-03-04T02:34:47.459Z,3.9
2023-03-04T02:40:24.713Z,3.8
2023-03-04T02:46:01.504Z,3.7
2023-03-04T02:51:38.308Z,3.6
2023-03-04T02:57:15.391Z,3.6
2023-03-04T03:02:37.515Z,3.4
2023-03-04T03:08:15.389Z,3.2
2023-03-04T03:13:53.214Z,3
2023-03-04T03:19:16.527Z,2.9
2023-03-04T03:24:54.158Z,2.8
2023-03-04T03:30:30.776Z,2.6
2023-03-04T03:36:08.687Z,2.5
2023-03-04T03:41:46.406Z,2.4
2023-03-04T03:47:08.119Z,2.3
2023-03-04T03:52:29.782Z,2.3
2023-03-04T03:58:08.254Z,2.1
2023-03-04T04:03:46.275Z,2.1
2023-03-04T04:09:23.627Z,1.9
2023-03-04T04:15:00.759Z,1.9
2023-03-04T04:20:25.717Z,1.8
2023-03-04T04:26:03.896Z,1.6
2023-03-04T04:31:41.128Z,1.4
2023-03-04T04:36:46.982Z,1.3
2023-03-04T04:42:24.598Z,1.3
2023-03-04T04:47:47.680Z,1.1
2023-03-04T04:53:40.689Z,0.9
2023-03-04T04:59:17.847Z,0.9
2023-03-04T05:04:55.236Z,0.8
2023-03-04T05:10:32.358Z,0.8
2023-03-04T05:16:25.395Z,0.8
2023-03-04T05:22:02.061Z,0.8
2023-03-04T05:27:38.663Z,0.8
2023-03-04T05:33:16.156Z,1
2023-03-04T05:38:54.583Z,1.3
2023-03-04T05:44:31.144Z,1.6
2023-03-04T05:50:23.952Z,1.9
2023-03-04T05:56:16.687Z,2.3
2023-03-04T06:02:09.130Z,2.7
2023-03-04T06:07:47.020Z,3.3
2023-03-04T06:13:39.465Z,3.9
2023-03-04T06:19:32.117Z,4.6
2023-03-04T06:25:24.506Z,5.5
2023-03-04T06:31:04.122Z,6.5
2023-03-04T06:36:57.000Z,7.4
2023-03-04T06:42:50.489Z,8.4
2023-03-04T06:48:28.349Z,9.5
2023-03-04T06:54:21.145Z,10.3
2023-03-04T07:00:12.959Z,10.8
2023-03-04T07:06:05.378Z,11.1
2023-03-04T07:11:57.491Z,11.3
2023-03-04T07:17:50.327Z,11.4
2023-03-04T07:23:44.112Z,11.6
2023-03-04T07:29:35.948Z,12
2023-03-04T07:35:28.551Z,12.4
2023-03-04T07:41:21.512Z,13.1
2023-03-04T07:47:14.393Z,13.7
2023-03-04T07:53:09.921Z,14.4
2023-03-04T07:59:02.421Z,15.6
2023-03-04T08:04:54.555Z,16.3
2023-03-04T08:10:46.921Z,16.4
2023-03-04T08:16:40.251Z,16.4
2023-03-04T08:22:18.331Z,16.5
2023-03-04T08:27:56.239Z,16.5
2023-03-04T08:33:51.342Z,16.6
2023-03-04T08:45:24.662Z,17.6
2023-03-04T08:51:18.213Z,18.3
2023-03-04T08:57:10.809Z,18.6
2023-03-04T09:03:03.476Z,18.9
2023-03-04T09:08:56.294Z,19.2
2023-03-04T09:14:53.262Z,19.6
2023-03-04T09:20:52.235Z,20.3
2023-03-04T09:26:44.802Z,20.9
2023-03-04T09:32:37.757Z,21.6
2023-03-04T09:38:30.453Z,22.3
2023-03-04T09:44:07.978Z,23.1
2023-03-04T09:50:02.839Z,24.4
2023-03-04T09:55:59.951Z,25.9
2023-03-04T10:01:54.063Z,27.1
2023-03-04T10:07:46.513Z,27.7
2023-03-04T10:13:38.482Z,28.8
2023-03-04T10:19:32.362Z,30.1
2023-03-04T10:25:27.849Z,30.6
2023-03-04T10:31:05.310Z,30.3
2023-03-04T10:36:58.663Z,31
2023-03-04T10:42:51.190Z,32.7
2023-03-04T10:48:44.575Z,35.6
2023-03-04T10:54:37.052Z,37.1
2023-03-04T11:00:15.979Z,36.3
2023-03-04T11:06:09.284Z,34.9
2023-03-04T11:12:11.978Z,34.5
2023-03-04T11:18:03.531Z,35.3
2023-03-04T11:24:00.046Z,36.3
2023-03-04T11:30:04.778Z,36.1
2023-03-04T11:35:58.536Z,35.8
2023-03-04T11:41:52.160Z,35.2
2023-03-04T11:48:01.896Z,34.1
2023-03-04T11:53:54.583Z,33.6
2023-03-04T11:59:48.152Z,33.6
2023-03-04T12:05:42.352Z,33.3
2023-03-04T12:11:19.769Z,34.3
2023-03-04T12:17:15.011Z,35.5
2023-03-04T12:23:07.365Z,36.9
2023-03-04T12:28:45.651Z,36.6
2023-03-04T12:34:42.496Z,35.6
2023-03-04T12:40:21.407Z,34.1
2023-03-04T12:45:57.678Z,32.6
2023-03-04T12:51:52.737Z,30.9
2023-03-04T12:57:45.978Z,29.1
2023-03-04T13:03:24.248Z,27.3
2023-03-04T13:09:02.182Z,25.7
2023-03-04T13:14:57.688Z,24.4
2023-03-04T13:20:36.965Z,23.6
2023-03-04T13:26:31.249Z,22.9
2023-03-04T13:32:24.646Z,22.3
2023-03-04T13:38:22.376Z,21.9
2023-03-04T13:43:59.731Z,21.6
2023-03-04T13:49:53.907Z,20.9
2023-03-04T13:56:00.024Z,20.3
2023-03-04T14:01:56.037Z,19.9
2023-03-04T14:07:50.509Z,19.4
2023-03-04T14:13:28.045Z,19.1
2023-03-04T14:19:20.230Z,18.8
2023-03-04T14:25:14.315Z,18.4
2023-03-04T14:31:01.406Z,18.1
2023-03-04T14:36:54.534Z,17.9
2023-03-04T14:42:46.961Z,17.9
2023-03-04T14:48:51.707Z,17.8
2023-03-04T14:54:43.857Z,17.6
2023-03-04T15:00:36.150Z,17.4
2023-03-04T15:06:29.785Z,17.1
2023-03-04T15:12:22.790Z,16.9
2023-03-04T15:18:16.353Z,16.6
2023-03-04T15:23:52.848Z,16.4
2023-03-04T15:29:47.358Z,16.1
2023-03-04T15:35:40.319Z,15.8
2023-03-04T15:41:31.709Z,15.3
2023-03-04T15:47:12.410Z,14.8
2023-03-04T15:52:51.178Z,14.3
2023-03-04T15:58:43.462Z,13.8
2023-03-04T16:04:36.088Z,13.3
2023-03-04T16:10:28.825Z,12.8
2023-03-04T16:16:21.067Z,12.3
2023-03-04T16:22:13.639Z,11.8
2023-03-04T16:28:06.128Z,11.3
2023-03-04T16:33:45.554Z,10.9
2023-03-04T16:39:38.573Z,10.4
2023-03-04T16:45:16.020Z,10.1
2023-03-04T16:51:10.310Z,9.8
2023-03-04T16:57:03.324Z,9.5
2023-03-04T17:02:56.349Z,9.3
2023-03-04T17:08:50.970Z,9
2023-03-04T17:14:28.162Z,8.8
2023-03-04T17:20:05.233Z,8.6
2023-03-04T17:25:57.348Z,8.4
2023-03-04T17:31:34.574Z,8.2
2023-03-04T17:37:27.491Z,8.1
2023-03-04T17:43:04.233Z,7.9
2023-03-04T17:48:41.698Z,7.8
2023-03-04T17:54:33.312Z,7.6
2023-03-04T18:00:10.125Z,7.5
2023-03-04T18:06:02.911Z,7.4
2023-03-04T18:11:39.890Z,7.3
2023-03-04T18:17:32.013Z,7.2
2023-03-04T18:22:53.565Z,7.1
2023-03-04T18:28:30.857Z,7.1
2023-03-04T18:34:19.766Z,7
2023-03-04T18:39:57.101Z,6.9
2023-03-04T18:45:50.181Z,6.9
2023-03-04T18:51:42.689Z,6.9
2023-03-04T18:57:35.683Z,6.9
2023-03-04T19:03:28.367Z,6.9
2023-03-04T19:09:19.963Z,6.8
2023-03-04T19:14:59.154Z,6.8
2023-03-04T19:20:20.393Z,6.8
2023-03-04T19:26:12.445Z,6.8
2023-03-04T19:31:50.308Z,6.8
2023-03-04T19:37:27.187Z,6.8
2023-03-04T19:42:32.802Z,6.8
2023-03-04T19:48:26.336Z,6.7
2023-03-04T19:54:03.462Z,6.7
2023-03-04T19:59:40.748Z,6.7
2023-03-04T20:05:18.412Z,6.7
2023-03-04T20:10:40.151Z,6.7
2023-03-04T20:15:57.524Z,6.7
2023-03-04T20:21:34.724Z,6.7
2023-03-04T20:26:57.236Z,6.7
2023-03-04T20:32:34.416Z,6.7
2023-03-04T20:38:12.691Z,6.7
2023-03-04T20:44:01.349Z,6.6
2023-03-04T20:49:53.238Z,6.6
2023-03-04T20:55:29.831Z,6.6
2023-03-04T21:00:21.060Z,6.6
2023-03-04T21:06:13.588Z,6.5
2023-03-04T21:12:06.475Z,6.5
2023-03-04T21:17:59.311Z,6.5
2023-03-04T21:23:55.641Z,6.4
2023-03-04T21:29:48.337Z,6.4
2023-03-04T21:35:40.465Z,6.4
2023-03-04T21:41:17.579Z,6.3
2023-03-04T21:46:53.607Z,6.3
2023-03-04T21:52:48.901Z,6.3
2023-03-04T21:58:10.267Z,6.3
2023-03-04T22:03:48.925Z,6.2
2023-03-04T22:09:41.019Z,6.2
2023-03-04T22:15:02.927Z,6.1
2023-03-04T22:20:36.783Z,6.1
2023-03-04T22:25:58.409Z,6.1
2023-03-04T22:31:35.792Z,6.1
2023-03-04T22:36:43.673Z,6
2023-03-04T22:42:05.068Z,6
2023-03-04T22:47:27.153Z,5.9
2023-03-04T22:53:04.069Z,5.9
2023-03-04T22:58:41.648Z,5.9
2023-03-04T23:04:34.339Z,5.9
2023-03-04T23:10:26.154Z,5.8
2023-03-04T23:16:19.478Z,5.8
2023-03-04T23:22:11.383Z,5.8
2023-03-04T23:27:49.242Z,5.7
2023-03-04T23:33:43.053Z,5.7
2023-03-04T23:39:35.138Z,5.6
2023-03-04T23:45:27.537Z,5.6
2023-03-04T23:51:05.565Z,5.6
2023-03-04T23:56:57.927Z,5.5
